Indianapolis, Indiana
Traffic Map
Current Weather Conditions
Indianapolis, Indiana
Broken Clouds
Broken Clouds
75°
Feels Like: 75°
Wind Chill: 75° Ceiling: 15000
Heat Index: 75° Visibility: 10mi
Dew Point: 65° Wind: 8mph
Humidity: 71% Direction: 250° (WSW)
Pressure: 29.77in Gusts: 0mph
Raw Report DataKIND 210254Z 25007KT 10SM SCT055 BKN150 BKN250 24/18 A2977 RMK AO2 SLP073 T02390183 51008
Traffic Incident Summary
Active as of:
Severity:
Category:
InformationThere was an issue retrieving the traffic information for this location. Please try a different location or try again shortly.
Advertisements